Time;durP1;ratioP1;P1;durP2;ratioP2;P2;SDS_P1;SDS_P2;PMS_P1;PMS_P2;Temp;Humidity;BMP_temperature;BMP_pressure;BME280_temperature;BME280_humidity;BME280_pressure;Samples;Min_cycle;Max_cycle;Signal;HPM_P1;HPM_P2
2022/08/04 00:00:11;;;;;;;0.17;0.17;;;21.50;99.90;;;;;;5062027;28;19920;-78
2022/08/04 00:02:52;;;;;;;0.20;0.20;;;21.40;99.90;;;;;;5068247;28;20120;-77
2022/08/04 00:05:35;;;;;;;0.20;0.20;;;21.40;99.90;;;;;;5063962;28;20552;-77
2022/08/04 00:08:14;;;;;;;0.20;0.20;;;21.40;99.90;;;;;;5052380;28;20373;-78
2022/08/04 00:10:46;;;;;;;0.10;0.10;;;21.40;99.90;;;;;;5061515;28;20131;-77
2022/08/04 00:13:13;;;;;;;0.10;0.10;;;21.40;99.90;;;;;;5055273;28;20036;-77
2022/08/04 00:15:39;;;;;;;0.20;0.20;;;21.40;99.90;;;;;;5058420;28;20047;-78
2022/08/04 00:18:08;;;;;;;0.20;0.20;;;21.40;99.90;;;;;;5070475;28;20119;-78
2022/08/04 00:20:39;;;;;;;0.20;0.20;;;21.30;99.90;;;;;;5067491;28;20074;-78
2022/08/04 00:23:06;;;;;;;0.10;0.10;;;21.30;99.90;;;;;;5084431;28;20043;-78
2022/08/04 00:25:39;;;;;;;0.15;0.15;;;21.30;99.90;;;;;;5079629;28;20040;-78
2022/08/04 00:28:05;;;;;;;0.15;0.15;;;21.40;99.90;;;;;;5066804;28;20056;-78
2022/08/04 00:30:31;;;;;;;0.20;0.20;;;21.30;99.90;;;;;;5065099;28;20579;-78
2022/08/04 00:32:57;;;;;;;0.13;0.13;;;21.30;99.90;;;;;;5065267;28;20056;-78
2022/08/04 00:35:23;;;;;;;0.20;0.20;;;21.30;99.90;;;;;;5076162;28;20040;-78
2022/08/04 00:37:50;;;;;;;0.20;0.20;;;21.30;99.90;;;;;;5064238;28;20369;-78
2022/08/04 00:40:35;;;;;;;0.20;0.20;;;21.30;99.90;;;;;;5080005;28;20041;-77
2022/08/04 00:43:20;;;;;;;0.20;0.20;;;21.30;99.90;;;;;;5064919;28;20041;-78
2022/08/04 00:45:59;;;;;;;0.20;0.20;;;21.30;99.90;;;;;;5071452;28;20039;-79
2022/08/04 00:48:45;;;;;;;0.20;0.20;;;21.30;99.90;;;;;;5069844;28;20028;-79
2022/08/04 00:51:39;;;;;;;0.20;0.20;;;21.20;99.90;;;;;;5069148;28;20044;-79
2022/08/04 00:54:26;;;;;;;0.20;0.20;;;21.30;99.90;;;;;;5066905;28;20044;-78
2022/08/04 00:57:00;;;;;;;0.13;0.13;;;21.20;99.90;;;;;;5079701;28;20100;-77
2022/08/04 00:59:54;;;;;;;0.20;0.20;;;21.20;99.90;;;;;;5083519;28;20142;-78
2022/08/04 01:02:45;;;;;;;0.20;0.20;;;21.20;99.90;;;;;;5060352;28;20056;-77
2022/08/04 01:05:29;;;;;;;0.20;0.20;;;21.20;99.90;;;;;;5074273;28;20105;-78
2022/08/04 01:08:27;;;;;;;0.13;0.13;;;21.30;99.90;;;;;;5073428;28;20037;-78
2022/08/04 01:11:14;;;;;;;0.10;0.10;;;21.20;99.90;;;;;;5058864;28;20037;-79
2022/08/04 01:14:16;;;;;;;0.10;0.10;;;21.20;99.90;;;;;;5060845;28;20056;-79
2022/08/04 01:16:56;;;;;;;0.20;0.20;;;21.20;99.90;;;;;;5063988;28;20497;-80
2022/08/04 01:19:44;;;;;;;0.10;0.10;;;21.20;99.90;;;;;;5061707;28;20032;-77
2022/08/04 01:22:21;;;;;;;0.17;0.17;;;21.20;99.90;;;;;;5070143;28;20039;-77
2022/08/04 01:25:25;;;;;;;0.20;0.20;;;21.20;99.90;;;;;;5074444;28;20044;-79
2022/08/04 01:28:29;;;;;;;0.20;0.20;;;21.20;99.90;;;;;;5066504;28;20078;-77
2022/08/04 01:31:23;;;;;;;0.20;0.20;;;21.20;99.90;;;;;;5060615;28;20263;-78
2022/08/04 01:33:51;;;;;;;0.20;0.20;;;21.20;99.90;;;;;;5052838;28;20059;-78
2022/08/04 01:36:19;;;;;;;0.17;0.17;;;21.20;99.90;;;;;;5069980;28;20036;-78
2022/08/04 01:38:45;;;;;;;0.20;0.20;;;21.20;99.90;;;;;;5070339;28;20068;-78
2022/08/04 01:41:15;;;;;;;0.20;0.20;;;21.20;99.90;;;;;;5078235;28;20785;-78
2022/08/04 01:43:43;;;;;;;0.20;0.20;;;21.20;99.90;;;;;;5060956;28;20048;-77
2022/08/04 01:46:11;;;;;;;0.20;0.20;;;21.20;99.90;;;;;;5072430;28;20502;-78
2022/08/04 01:48:38;;;;;;;0.10;0.10;;;21.20;99.90;;;;;;5058962;28;20052;-78
2022/08/04 01:51:07;;;;;;;0.20;0.20;;;21.10;99.90;;;;;;5052453;28;20121;-78
2022/08/04 01:53:35;;;;;;;0.10;0.10;;;21.10;99.90;;;;;;5057645;28;20039;-78
2022/08/04 01:56:03;;;;;;;0.20;0.20;;;21.10;99.90;;;;;;5064656;28;20036;-78
2022/08/04 01:58:33;;;;;;;0.10;0.10;;;21.10;99.90;;;;;;5077586;28;20083;-78
2022/08/04 02:01:08;;;;;;;0.20;0.20;;;21.10;99.90;;;;;;5060102;28;20397;-78
2022/08/04 02:03:36;;;;;;;0.10;0.10;;;21.10;99.90;;;;;;5068934;28;20041;-79
2022/08/04 02:06:35;;;;;;;0.15;0.15;;;21.10;99.90;;;;;;5089507;28;20048;-79
2022/08/04 02:09:40;;;;;;;0.20;0.20;;;21.10;99.90;;;;;;5059951;28;20049;-78
2022/08/04 02:12:34;;;;;;;0.20;0.20;;;21.00;99.90;;;;;;5064530;28;20052;-78
2022/08/04 02:15:27;;;;;;;0.20;0.20;;;21.10;99.90;;;;;;5070431;28;20048;-76
2022/08/04 02:18:01;;;;;;;0.20;0.20;;;21.10;99.90;;;;;;5071784;28;21030;-76
2022/08/04 02:20:52;;;;;;;0.10;0.10;;;21.10;99.90;;;;;;5061547;28;20053;-77
2022/08/04 02:23:29;;;;;;;0.20;0.20;;;21.00;99.90;;;;;;5062245;28;20428;-77
2022/08/04 02:25:59;;;;;;;0.17;0.17;;;21.00;99.90;;;;;;5066325;28;20391;-77
2022/08/04 02:28:38;;;;;;;0.20;0.20;;;21.00;99.90;;;;;;5056479;28;20045;-78
2022/08/04 02:31:29;;;;;;;0.10;0.10;;;21.00;99.90;;;;;;5060838;28;20132;-78
2022/08/04 02:34:01;;;;;;;0.20;0.20;;;21.00;99.90;;;;;;5074003;28;20043;-78
2022/08/04 02:36:33;;;;;;;0.20;0.20;;;21.00;99.90;;;;;;5066936;28;20206;-78
2022/08/04 02:39:02;;;;;;;0.10;0.10;;;21.00;99.90;;;;;;5069775;28;20072;-78
2022/08/04 02:41:29;;;;;;;0.20;0.20;;;21.00;99.90;;;;;;5062964;28;20080;-78
2022/08/04 02:43:59;;;;;;;0.20;0.20;;;21.00;99.90;;;;;;5057572;28;20037;-78
2022/08/04 02:46:26;;;;;;;0.20;0.20;;;20.90;99.90;;;;;;5070845;28;20036;-78
2022/08/04 02:48:53;;;;;;;0.20;0.20;;;20.80;99.90;;;;;;5066035;28;20416;-78
2022/08/04 02:51:41;;;;;;;0.20;0.20;;;20.80;99.90;;;;;;5073257;28;20053;-78
2022/08/04 02:54:07;;;;;;;0.20;0.20;;;20.80;99.90;;;;;;5055976;28;20037;-78
2022/08/04 02:56:38;;;;;;;0.20;0.20;;;20.80;99.90;;;;;;5061833;28;20037;-78
2022/08/04 02:59:09;;;;;;;0.20;0.20;;;20.80;99.90;;;;;;5069885;28;20106;-78
2022/08/04 03:01:36;;;;;;;0.20;0.20;;;20.80;99.90;;;;;;5062550;28;20492;-78
2022/08/04 03:04:10;;;;;;;0.13;0.13;;;20.80;99.90;;;;;;5070295;28;20040;-78
2022/08/04 03:07:03;;;;;;;0.20;0.20;;;20.80;99.90;;;;;;5073150;28;20503;-78
2022/08/04 03:09:47;;;;;;;0.20;0.20;;;20.80;99.90;;;;;;5072502;28;20090;-78
2022/08/04 03:12:32;;;;;;;0.10;0.10;;;20.80;99.90;;;;;;5069519;28;20036;-78
2022/08/04 03:15:29;;;;;;;0.20;0.20;;;20.80;99.90;;;;;;5071837;28;20446;-77
2022/08/04 03:17:57;;;;;;;0.13;0.13;;;20.80;99.90;;;;;;5055258;28;20049;-78
2022/08/04 03:21:00;;;;;;;0.10;0.10;;;20.80;99.90;;;;;;5080503;28;20044;-78
2022/08/04 03:23:50;;;;;;;0.10;0.10;;;20.80;99.90;;;;;;5076228;28;20139;-77
2022/08/04 03:26:45;;;;;;;0.20;0.20;;;20.80;99.90;;;;;;5060879;28;20043;-78
2022/08/04 03:29:25;;;;;;;0.10;0.10;;;20.80;99.90;;;;;;5061534;28;20488;-78
2022/08/04 03:32:12;;;;;;;0.20;0.20;;;20.80;99.90;;;;;;5061404;28;20063;-78
2022/08/04 03:35:08;;;;;;;0.10;0.10;;;20.70;99.90;;;;;;5065746;28;20040;-78
2022/08/04 03:37:59;;;;;;;0.10;0.10;;;20.70;99.90;;;;;;5070576;28;20484;-77
2022/08/04 03:40:49;;;;;;;0.20;0.20;;;20.80;99.90;;;;;;5069495;28;20040;-77
2022/08/04 03:43:40;;;;;;;0.20;0.20;;;20.70;99.90;;;;;;5068186;28;20306;-76
2022/08/04 03:46:41;;;;;;;0.20;0.20;;;20.70;99.90;;;;;;5056644;28;20040;-77
2022/08/04 03:49:39;;;;;;;0.20;0.20;;;20.70;99.90;;;;;;5059301;28;20080;-76
2022/08/04 03:55:19;;;;;;;0.20;0.20;;;20.70;99.90;;;;;;5073325;28;20088;-76
2022/08/04 03:57:56;;;;;;;0.20;0.20;;;20.70;99.90;;;;;;5057415;28;20041;-77
2022/08/04 04:00:44;;;;;;;0.20;0.20;;;20.70;99.90;;;;;;5070605;28;20051;-77
2022/08/04 04:03:34;;;;;;;0.20;0.20;;;20.70;99.90;;;;;;5060745;28;20086;-76
2022/08/04 04:06:42;;;;;;;0.20;0.20;;;20.70;99.90;;;;;;5066457;28;20048;-77
2022/08/04 04:09:16;;;;;;;0.17;0.17;;;20.60;99.90;;;;;;5060246;28;20094;-77
2022/08/04 04:11:58;;;;;;;0.10;0.10;;;20.60;99.90;;;;;;5077163;28;20044;-77
2022/08/04 04:14:35;;;;;;;0.10;0.10;;;20.60;99.90;;;;;;5069916;28;20036;-77
2022/08/04 04:17:29;;;;;;;0.10;0.10;;;20.60;99.90;;;;;;5066112;28;20053;-77
2022/08/04 04:20:31;;;;;;;0.10;0.10;;;20.60;99.90;;;;;;5068241;28;20048;-77
2022/08/04 04:22:57;;;;;;;0.10;0.10;;;20.60;99.90;;;;;;5073402;28;20044;-76
2022/08/04 04:25:58;;;;;;;0.13;0.13;;;20.70;99.90;;;;;;5061002;28;20036;-77
2022/08/04 04:28:32;;;;;;;0.17;0.17;;;20.60;99.90;;;;;;5054966;28;20029;-77
2022/08/04 04:31:16;;;;;;;0.10;0.10;;;20.60;99.90;;;;;;5062988;28;20101;-77
2022/08/04 04:33:55;;;;;;;0.15;0.15;;;20.60;99.90;;;;;;5077830;28;20477;-78
2022/08/04 04:36:27;;;;;;;0.10;0.10;;;20.60;99.90;;;;;;5064236;28;20076;-77
2022/08/04 04:39:32;;;;;;;0.20;0.20;;;20.60;99.90;;;;;;5058719;28;20113;-77
2022/08/04 04:42:15;;;;;;;0.20;0.20;;;20.60;99.90;;;;;;5067852;28;20139;-77
2022/08/04 04:44:55;;;;;;;0.20;0.20;;;20.60;99.90;;;;;;5069558;28;20055;-78
2022/08/04 04:47:48;;;;;;;0.20;0.20;;;20.60;99.90;;;;;;5062874;28;20060;-78
2022/08/04 04:50:25;;;;;;;0.20;0.20;;;20.70;99.90;;;;;;5062029;28;20111;-77
2022/08/04 04:53:27;;;;;;;0.13;0.13;;;20.60;99.90;;;;;;5054379;28;20048;-78
2022/08/04 04:56:15;;;;;;;0.20;0.20;;;20.60;99.90;;;;;;5065404;28;20036;-78
2022/08/04 04:58:42;;;;;;;0.13;0.13;;;20.60;99.90;;;;;;5063464;28;20135;-78
2022/08/04 05:01:49;;;;;;;0.20;0.20;;;20.60;99.90;;;;;;5063861;28;20139;-77
2022/08/04 05:04:46;;;;;;;0.20;0.20;;;20.60;99.90;;;;;;5061379;28;20136;-78
2022/08/04 05:07:49;;;;;;;0.10;0.10;;;20.60;99.90;;;;;;5062071;28;21949;-77
2022/08/04 05:10:38;;;;;;;0.15;0.15;;;20.60;99.90;;;;;;5052656;28;20110;-75
2022/08/04 05:13:28;;;;;;;0.10;0.10;;;20.70;99.90;;;;;;5053981;28;20051;-77
2022/08/04 05:15:58;;;;;;;0.20;0.20;;;20.70;99.90;;;;;;5050926;28;20048;-78
2022/08/04 05:18:29;;;;;;;0.10;0.10;;;20.80;99.90;;;;;;5068437;28;20036;-78
2022/08/04 05:21:05;;;;;;;0.20;0.20;;;20.80;99.90;;;;;;5070696;28;20109;-78
2022/08/04 05:23:35;;;;;;;0.20;0.20;;;20.80;99.90;;;;;;5066143;28;20049;-78
2022/08/04 05:26:09;;;;;;;0.20;0.20;;;20.80;99.90;;;;;;5056139;28;20044;-78
2022/08/04 05:28:47;;;;;;;0.10;0.10;;;20.80;99.90;;;;;;5055576;28;20564;-78
2022/08/04 05:31:21;;;;;;;0.10;0.10;;;20.90;99.90;;;;;;5066456;28;20037;-77
2022/08/04 05:33:59;;;;;;;0.20;0.20;;;20.90;99.90;;;;;;5053013;28;20564;-78
2022/08/04 05:36:42;;;;;;;0.20;0.20;;;20.90;99.90;;;;;;5060842;28;20485;-78
2022/08/04 05:39:17;;;;;;;0.20;0.20;;;21.00;99.90;;;;;;5050484;28;20264;-78
2022/08/04 05:41:44;;;;;;;0.20;0.20;;;21.10;99.90;;;;;;5062764;28;20067;-81
2022/08/04 05:44:10;;;;;;;0.10;0.10;;;21.20;99.90;;;;;;5048425;28;20047;-81
2022/08/04 05:46:37;;;;;;;0.10;0.10;;;21.20;99.90;;;;;;5061966;28;20789;-81
2022/08/04 05:49:04;;;;;;;0.10;0.10;;;21.30;99.90;;;;;;5052422;28;20576;-81
2022/08/04 05:51:30;;;;;;;0.20;0.20;;;21.30;99.90;;;;;;5061944;28;20055;-82
2022/08/04 05:53:58;;;;;;;0.20;0.20;;;21.30;99.90;;;;;;5056407;28;20252;-81
2022/08/04 05:56:24;;;;;;;0.20;0.20;;;21.30;99.90;;;;;;5068154;28;20044;-80
2022/08/04 05:58:51;;;;;;;0.20;0.20;;;21.40;99.90;;;;;;5065811;28;20055;-80
2022/08/04 06:01:19;;;;;;;0.20;0.20;;;21.50;99.90;;;;;;5080773;28;20047;-79
2022/08/04 06:03:49;;;;;;;0.10;0.10;;;21.50;99.90;;;;;;5082918;28;20667;-80
2022/08/04 06:06:17;;;;;;;0.20;0.20;;;21.50;99.90;;;;;;5073878;28;20469;-81
2022/08/04 06:08:43;;;;;;;0.20;0.20;;;21.60;99.90;;;;;;5068539;28;20115;-80
2022/08/04 06:11:11;;;;;;;0.20;0.20;;;21.60;99.90;;;;;;5086919;28;20044;-81
2022/08/04 06:13:42;;;;;;;0.20;0.20;;;21.70;99.90;;;;;;5082180;28;20056;-80
2022/08/04 06:16:12;;;;;;;0.20;0.20;;;21.80;99.90;;;;;;5073742;28;20041;-80
2022/08/04 06:18:39;;;;;;;0.20;0.20;;;21.80;99.90;;;;;;5079190;28;20407;-80
2022/08/04 06:21:08;;;;;;;0.20;0.20;;;21.90;99.90;;;;;;5067415;28;20488;-81
2022/08/04 06:23:38;;;;;;;0.20;0.20;;;22.00;99.90;;;;;;5056702;28;20037;-80
2022/08/04 06:26:06;;;;;;;0.10;0.10;;;22.10;99.90;;;;;;5070166;28;20079;-82
2022/08/04 06:28:32;;;;;;;0.20;0.20;;;22.30;99.90;;;;;;5069050;28;20048;-80
2022/08/04 06:31:02;;;;;;;0.20;0.20;;;22.30;99.90;;;;;;5080156;28;20082;-80
2022/08/04 06:33:33;;;;;;;0.17;0.17;;;22.40;99.90;;;;;;5067237;28;20373;-80
2022/08/04 06:36:03;;;;;;;;;;;22.50;99.90;;;;;;5057184;28;20041;-80
2022/08/04 06:38:31;;;;;;;0.20;0.20;;;22.50;99.90;;;;;;5073845;28;19924;-80
2022/08/04 06:40:58;;;;;;;0.10;0.10;;;22.60;99.90;;;;;;5069925;28;20567;-79
2022/08/04 06:43:25;;;;;;;0.20;0.20;;;22.60;99.90;;;;;;5072406;28;20486;-80
2022/08/04 06:45:53;;;;;;;0.20;0.20;;;22.70;99.90;;;;;;5074596;28;21785;-80
2022/08/04 06:48:20;;;;;;;0.20;0.20;;;22.80;99.90;;;;;;5072208;28;20032;-79
2022/08/04 06:50:50;;;;;;;0.20;0.20;;;22.90;99.90;;;;;;5075509;28;20043;-80
2022/08/04 06:53:17;;;;;;;0.17;0.17;;;22.90;99.90;;;;;;5093264;28;20055;-79
2022/08/04 06:55:45;;;;;;;0.20;0.20;;;23.00;99.90;;;;;;5073013;28;20039;-79
2022/08/04 06:58:12;;;;;;;0.20;0.20;;;23.00;99.90;;;;;;5077199;28;20095;-79
2022/08/04 07:00:39;;;;;;;0.20;0.20;;;23.10;99.90;;;;;;5087321;28;20060;-80
2022/08/04 07:03:06;;;;;;;0.20;0.20;;;23.10;99.90;;;;;;5077386;28;20049;-80
2022/08/04 07:05:33;;;;;;;0.20;0.20;;;;;;;;;;5065447;28;20424;-79
2022/08/04 07:08:00;;;;;;;0.20;0.20;;;23.20;99.90;;;;;;5073426;28;20119;-79
2022/08/04 07:10:29;;;;;;;0.20;0.20;;;23.30;99.90;;;;;;5064801;28;20135;-79
2022/08/04 07:12:57;;;;;;;0.20;0.20;;;23.30;99.90;;;;;;5075020;28;20048;-79
2022/08/04 07:15:24;;;;;;;0.20;0.20;;;23.40;99.90;;;;;;5073856;28;20432;-80
2022/08/04 07:17:51;;;;;;;0.20;0.20;;;23.40;99.90;;;;;;5071671;28;20120;-79
2022/08/04 07:20:18;;;;;;;0.20;0.20;;;23.50;99.90;;;;;;5057284;28;20119;-78
2022/08/04 07:22:44;;;;;;;0.13;0.13;;;23.50;99.90;;;;;;5067875;28;20051;-80
2022/08/04 07:25:11;;;;;;;0.20;0.20;;;23.60;99.90;;;;;;5069116;28;20440;-79
2022/08/04 07:27:38;;;;;;;0.25;0.25;;;23.80;99.90;;;;;;5073305;28;20047;-80
2022/08/04 07:30:07;;;;;;;0.20;0.20;;;23.80;99.90;;;;;;5070759;28;20052;-80
2022/08/04 07:32:33;;;;;;;0.20;0.20;;;24.00;99.90;;;;;;5081476;28;20191;-81
2022/08/04 07:35:00;;;;;;;0.20;0.20;;;24.10;99.90;;;;;;5079086;28;20036;-80
2022/08/04 07:37:26;;;;;;;0.20;0.20;;;24.20;99.90;;;;;;5075447;28;20438;-81
2022/08/04 07:39:52;;;;;;;0.20;0.20;;;24.30;99.90;;;;;;5058504;28;20036;-78
2022/08/04 07:42:20;;;;;;;0.20;0.20;;;24.50;99.90;;;;;;5074699;28;20384;-81
2022/08/04 07:44:46;;;;;;;0.20;0.20;;;24.60;99.90;;;;;;5065018;28;20432;-80
2022/08/04 07:47:12;;;;;;;0.20;0.20;;;24.60;99.90;;;;;;5053525;28;20540;-79
2022/08/04 07:49:39;;;;;;;0.20;0.20;;;24.70;99.90;;;;;;5056957;28;20033;-79
2022/08/04 07:52:06;;;;;;;0.20;0.20;;;24.80;99.90;;;;;;5061104;28;20132;-80
2022/08/04 07:54:32;;;;;;;0.20;0.20;;;24.90;99.90;;;;;;5051533;28;20535;-79
2022/08/04 07:56:58;;;;;;;0.20;0.20;;;24.90;99.90;;;;;;5063796;28;20037;-80
2022/08/04 07:59:24;;;;;;;0.20;0.20;;;25.00;99.90;;;;;;5051478;28;20056;-79
2022/08/04 08:01:50;;;;;;;0.20;0.20;;;25.00;99.90;;;;;;5060594;28;20517;-80
2022/08/04 08:04:16;;;;;;;0.20;0.20;;;25.10;99.90;;;;;;5051851;28;20070;-80
2022/08/04 08:06:45;;;;;;;0.20;0.20;;;25.20;99.90;;;;;;5060698;28;20488;-79
2022/08/04 08:09:19;;;;;;;0.20;0.20;;;25.30;99.90;;;;;;5059351;28;20040;-79
2022/08/04 08:11:48;;;;;;;0.20;0.20;;;25.30;99.90;;;;;;5065193;28;20032;-79
2022/08/04 08:14:15;;;;;;;0.20;0.20;;;25.40;99.90;;;;;;5068338;28;20597;-78
2022/08/04 08:16:41;;;;;;;0.20;0.20;;;25.40;99.90;;;;;;5073762;28;20065;-80
2022/08/04 08:19:10;;;;;;;0.20;0.20;;;25.50;99.90;;;;;;5053701;28;20061;-79
2022/08/04 08:21:36;;;;;;;0.20;0.20;;;25.50;99.90;;;;;;5064400;28;20064;-79
2022/08/04 08:24:04;;;;;;;0.20;0.20;;;25.60;99.90;;;;;;5072140;28;20071;-79
2022/08/04 08:26:29;;;;;;;0.28;0.28;;;25.70;99.90;;;;;;5073782;28;20136;-79
2022/08/04 08:28:55;;;;;;;0.30;0.30;;;25.70;99.90;;;;;;5056418;28;20136;-79
2022/08/04 08:31:21;;;;;;;0.20;0.20;;;25.80;99.90;;;;;;5067424;28;20119;-79
2022/08/04 08:33:49;;;;;;;0.20;0.20;;;25.80;99.90;;;;;;5072507;28;20504;-78
2022/08/04 08:36:47;;;;;;;0.20;0.20;;;25.80;99.90;;;;;;5071711;28;20120;-79
2022/08/04 08:39:21;;;;;;;0.20;0.20;;;25.80;99.90;;;;;;5062587;28;20063;-78
2022/08/04 08:42:28;;;;;;;0.20;0.20;;;25.80;99.90;;;;;;5075461;28;20048;-79
2022/08/04 08:45:16;;;;;;;0.20;0.20;;;25.80;99.90;;;;;;5065270;28;20052;-79
2022/08/04 08:48:17;;;;;;;0.20;0.20;;;25.80;99.90;;;;;;5088084;28;20534;-78
2022/08/04 08:50:43;;;;;;;0.20;0.20;;;25.80;99.90;;;;;;5045271;28;20056;-78
2022/08/04 08:53:30;;;;;;;0.20;0.20;;;25.90;99.90;;;;;;5069659;28;20052;-78
2022/08/04 08:56:11;;;;;;;0.20;0.20;;;25.90;99.90;;;;;;5069165;28;20079;-78
2022/08/04 08:58:37;;;;;;;;;;;26.00;99.90;;;;;;5069903;28;20642;-79
2022/08/04 09:01:39;;;;;;;0.20;0.20;;;26.00;99.90;;;;;;5068889;28;19924;-79
2022/08/04 09:04:15;;;;;;;0.20;0.20;;;;;;;;;;5077245;28;20056;-78
2022/08/04 09:07:17;;;;;;;0.20;0.20;;;;;;;;;;5069401;28;20128;-78
2022/08/04 09:09:50;;;;;;;0.20;0.20;;;;;;;;;;5046738;28;20045;-79
2022/08/04 09:12:30;;;;;;;0.20;0.20;;;;;;;;;;5065662;28;20056;-78
2022/08/04 09:14:56;;;;;;;0.20;0.20;;;;;;;;;;5060776;28;21756;-78
2022/08/04 09:17:42;;;;;;;0.20;0.20;;;;;;;;;;5074084;28;20509;-79
2022/08/04 09:20:13;;;;;;;0.10;0.10;;;;;;;;;;5070455;28;20079;-79
2022/08/04 09:22:49;;;;;;;0.20;0.20;;;;;;;;;;5073749;28;20037;-78
2022/08/04 09:25:24;;;;;;;0.20;0.20;;;;;;;;;;5083006;28;20040;-79
2022/08/04 09:27:54;;;;;;;0.20;0.20;;;;;;;;;;5067092;28;20044;-79
2022/08/04 09:30:38;;;;;;;0.20;0.20;;;;;;;;;;5060271;28;20076;-80
2022/08/04 09:33:10;;;;;;;0.30;0.30;;;;;;;;;;5066917;28;20310;-80
2022/08/04 09:35:44;;;;;;;0.20;0.20;;;;;;;;;;5066474;28;20047;-79
2022/08/04 09:38:19;;;;;;;0.20;0.20;;;;;;;;;;5068977;28;20045;-79
2022/08/04 09:40:51;;;;;;;0.20;0.20;;;;;;;;;;5060242;28;20124;-79
2022/08/04 09:43:20;;;;;;;0.20;0.20;;;;;;;;;;5052050;28;20515;-78
2022/08/04 09:45:52;;;;;;;0.20;0.20;;;;;;;;;;5053476;28;20128;-79
2022/08/04 09:48:27;;;;;;;0.30;0.30;;;;;;;;;;5050218;28;20488;-80
2022/08/04 09:50:56;;;;;;;0.20;0.20;;;;;;;;;;5054825;28;20041;-79
2022/08/04 09:53:28;;;;;;;0.20;0.20;;;;;;;;;;5048988;28;20128;-79
2022/08/04 09:55:59;;;;;;;0.20;0.20;;;;;;;;;;5049073;28;20064;-78
2022/08/04 09:58:41;;;;;;;0.20;0.20;;;;;;;;;;5051430;28;20151;-78
2022/08/04 10:01:13;;;;;;;0.20;0.20;;;;;;;;;;5070058;28;20067;-79
2022/08/04 10:03:41;;;;;;;1.13;0.28;;;;;;;;;;5050545;28;20052;-78
2022/08/04 10:06:19;;;;;;;0.30;0.30;;;;;;;;;;5060719;28;20048;-79
2022/08/04 10:08:51;;;;;;;0.20;0.20;;;;;;;;;;5065637;28;20140;-78
2022/08/04 10:11:32;;;;;;;0.20;0.20;;;;;;;;;;5048836;28;20044;-80
2022/08/04 10:14:04;;;;;;;0.13;0.13;;;;;;;;;;5055269;28;20045;-79
2022/08/04 10:16:49;;;;;;;0.20;0.20;;;;;;;;;;5049143;28;20053;-78
2022/08/04 10:19:24;;;;;;;0.20;0.20;;;;;;;;;;5065776;28;20090;-80
2022/08/04 10:22:06;;;;;;;0.17;0.17;;;;;;;;;;5066357;28;20044;-79
2022/08/04 10:24:36;;;;;;;0.20;0.20;;;;;;;;;;5054092;28;20455;-79
2022/08/04 10:27:09;;;;;;;0.20;0.20;;;;;;;;;;5058301;28;20044;-79
2022/08/04 10:29:42;;;;;;;0.30;0.30;;;;;;;;;;5050381;28;20041;-80
2022/08/04 10:32:14;;;;;;;0.20;0.20;;;;;;;;;;5048282;28;20392;-78
2022/08/04 10:34:43;;;;;;;0.20;0.20;;;;;;;;;;5065165;28;20515;-78
2022/08/04 10:37:09;;;;;;;0.10;0.10;;;;;;;;;;5049876;28;20045;-78
2022/08/04 10:42:45;;;;;;;0.20;0.20;;;;;;;;;;5081226;28;20048;-80
2022/08/04 10:45:18;;;;;;;0.30;0.30;;;;;;;;;;5062421;28;20611;-80
2022/08/04 10:47:50;;;;;;;0.17;0.17;;;;;;;;;;5048848;28;20079;-79
2022/08/04 10:50:17;;;;;;;0.20;0.20;;;;;;;;;;5060666;28;20497;-78
2022/08/04 10:52:45;;;;;;;0.20;0.20;;;;;;;;;;5048869;28;20128;-78
2022/08/04 10:55:16;;;;;;;0.20;0.20;;;;;;;;;;5049861;28;20497;-78
2022/08/04 10:57:50;;;;;;;0.20;0.20;;;;;;;;;;5068955;28;20041;-79
2022/08/04 11:00:21;;;;;;;0.20;0.20;;;;;;;;;;5055872;28;20049;-79
2022/08/04 11:02:59;;;;;;;0.20;0.20;;;;;;;;;;5050194;28;20052;-79
2022/08/04 11:05:25;;;;;;;0.20;0.20;;;;;;;;;;5051178;28;20053;-80
2022/08/04 11:07:52;;;;;;;0.20;0.20;;;;;;;;;;5063713;28;20083;-78
2022/08/04 11:10:21;;;;;;;0.20;0.20;;;;;;;;;;5054181;28;20079;-79
2022/08/04 11:12:48;;;;;;;0.20;0.20;;;;;;;;;;5057637;28;20036;-80
2022/08/04 11:15:41;;;;;;;0.20;0.20;;;;;;;;;;5072223;28;20074;-79
2022/08/04 11:18:14;;;;;;;0.20;0.20;;;;;;;;;;5072629;28;20055;-79
2022/08/04 11:20:40;;;;;;;0.20;0.20;;;;;;;;;;5070856;28;20044;-78
2022/08/04 11:23:08;;;;;;;0.20;0.20;;;;;;;;;;5069738;28;20447;-79
2022/08/04 11:25:49;;;;;;;0.20;0.20;;;;;;;;;;5081130;28;20059;-80
2022/08/04 11:28:15;;;;;;;0.20;0.20;;;;;;;;;;5074755;28;20142;-78
2022/08/04 11:30:46;;;;;;;0.30;0.30;;;;;;;;;;5065813;28;20044;-78
2022/08/04 11:33:27;;;;;;;0.20;0.20;;;;;;;;;;5054879;28;20045;-78
2022/08/04 11:35:59;;;;;;;0.20;0.20;;;;;;;;;;5076551;28;20081;-79
2022/08/04 11:38:36;;;;;;;0.20;0.20;;;;;;;;;;5100707;28;20047;-79
2022/08/04 11:41:09;;;;;;;0.20;0.20;;;;;;;;;;5089441;28;20044;-80
2022/08/04 11:43:44;;;;;;;0.20;0.20;;;;;;;;;;5073333;28;20080;-80
2022/08/04 11:46:15;;;;;;;0.20;0.20;;;;;;;;;;5068017;28;20058;-80
2022/08/04 11:48:44;;;;;;;0.20;0.20;;;;;;;;;;5080821;28;20369;-81
2022/08/04 11:51:11;;;;;;;0.20;0.20;;;;;;;;;;5069892;28;20080;-79
2022/08/04 11:53:38;;;;;;;0.20;0.20;;;;;;;;;;5065634;28;20053;-79
2022/08/04 11:56:07;;;;;;;0.20;0.20;;;;;;;;;;5070966;28;20039;-79
2022/08/04 11:58:33;;;;;;;0.20;0.20;;;;;;;;;;5075620;28;20041;-79
2022/08/04 12:01:18;;;;;;;0.20;0.20;;;;;;;;;;5071946;28;20488;-79
2022/08/04 12:04:03;;;;;;;0.20;0.20;;;;;;;;;;5057673;28;20084;-78
2022/08/04 12:06:36;;;;;;;0.20;0.20;;;;;;;;;;5071405;28;20048;-78
2022/08/04 12:09:21;;;;;;;0.20;0.20;;;;;;;;;;5067198;28;20055;-79
2022/08/04 12:11:56;;;;;;;0.20;0.20;;;;;;;;;;5063719;28;20094;-79
2022/08/04 12:14:28;;;;;;;0.20;0.20;;;;;;;;;;5069484;28;20098;-80
2022/08/04 12:17:02;;;;;;;0.20;0.20;;;;;;;;;;5070832;28;20507;-79
2022/08/04 12:19:28;;;;;;;0.20;0.20;;;;;;;;;;5071603;28;20083;-79
2022/08/04 12:21:58;;;;;;;0.20;0.20;;;;;;;;;;5064238;28;20036;-80
2022/08/04 12:24:24;;;;;;;;;;;;;;;;;;5054075;28;20381;-78
2022/08/04 12:26:56;;;;;;;0.20;0.20;;;;;;;;;;5069491;28;19928;-80
2022/08/04 12:29:25;;;;;;;0.20;0.20;;;;;;;;;;5081516;28;20055;-77
2022/08/04 12:32:04;;;;;;;0.20;0.20;;;;;;;;;;5090932;28;20048;-79
2022/08/04 12:34:33;;;;;;;0.20;0.20;;;;;;;;;;5091878;28;20119;-78
2022/08/04 12:37:10;;;;;;;0.20;0.20;;;;;;;;;;5072604;28;20586;-78
2022/08/04 12:39:37;;;;;;;0.17;0.17;;;;;;;;;;5068047;28;20048;-78
2022/08/04 12:42:23;;;;;;;0.20;0.20;;;;;;;;;;5064985;28;20052;-77
2022/08/04 12:44:53;;;;;;;0.20;0.20;;;;;;;;;;5068993;28;20055;-78
2022/08/04 12:47:22;;;;;;;0.20;0.20;;;;;;;;;;5069647;28;20052;-79
2022/08/04 12:49:52;;;;;;;0.20;0.20;;;;;;;;;;5070012;28;20053;-79
2022/08/04 12:52:20;;;;;;;0.20;0.20;;;;;;;;;;5060508;28;20064;-78
2022/08/04 12:54:47;;;;;;;0.20;0.20;;;;;;;;;;5059945;28;20070;-78
2022/08/04 12:57:15;;;;;;;0.20;0.20;;;;;;;;;;5067417;28;20040;-78
2022/08/04 12:59:45;;;;;;;0.20;0.20;;;;;;;;;;5069715;28;20088;-79
2022/08/04 13:02:32;;;;;;;0.20;0.20;;;;;;;;;;5069770;28;20056;-79
2022/08/04 13:04:59;;;;;;;0.20;0.20;;;;;;;;;;5062258;28;20036;-77
2022/08/04 13:07:26;;;;;;;0.20;0.20;;;;;;;;;;5055686;28;20052;-78
2022/08/04 13:09:52;;;;;;;0.20;0.20;;;;;;;;;;5072170;28;20051;-78
2022/08/04 13:12:21;;;;;;;0.20;0.20;;;;;;;;;;5082497;28;20044;-79
2022/08/04 13:14:50;;;;;;;0.20;0.20;;;;;;;;;;5068917;28;20631;-79
2022/08/04 13:17:16;;;;;;;0.20;0.20;;;;;;;;;;5069263;28;20123;-79
2022/08/04 13:19:46;;;;;;;0.20;0.20;;;;;;;;;;5069223;28;20119;-79
2022/08/04 13:22:15;;;;;;;0.20;0.20;;;;;;;;;;5070246;28;20504;-79
2022/08/04 13:24:41;;;;;;;0.20;0.20;;;;;;;;;;5058364;28;20536;-79
2022/08/04 13:27:12;;;;;;;0.20;0.20;;;;;;;;;;5049555;28;20103;-79
2022/08/04 13:29:45;;;;;;;0.20;0.20;;;;;;;;;;5050648;28;20044;-79
2022/08/04 13:32:15;;;;;;;0.20;0.20;;;;;;;;;;5066846;28;20052;-79
2022/08/04 13:34:42;;;;;;;0.20;0.20;;;;;;;;;;5071077;28;20371;-78
2022/08/04 13:37:09;;;;;;;0.20;0.20;;;;;;;;;;5070795;28;20049;-80
2022/08/04 13:39:36;;;;;;;0.15;0.15;;;;;;;;;;5068899;28;20484;-78
2022/08/04 13:42:04;;;;;;;0.20;0.20;;;;;;;;;;5068693;28;20507;-79
2022/08/04 13:44:40;;;;;;;0.20;0.20;;;;;;;;;;5068159;28;20044;-78
2022/08/04 13:47:14;;;;;;;0.20;0.20;;;;;;;;;;5058769;28;20049;-78
2022/08/04 13:49:59;;;;;;;0.20;0.20;;;;;;;;;;5055157;28;20127;-79
2022/08/04 13:52:26;;;;;;;0.20;0.20;;;;;;;;;;5070771;28;20068;-79
2022/08/04 13:54:52;;;;;;;0.15;0.15;;;;;;;;;;5063020;28;20059;-78
2022/08/04 13:57:22;;;;;;;0.30;0.30;;;;;;;;;;5068941;28;20041;-79
2022/08/04 13:59:51;;;;;;;0.20;0.20;;;;;;;;;;5062540;28;20135;-79
2022/08/04 14:02:25;;;;;;;0.20;0.20;;;;;;;;;;5067238;28;20455;-78
2022/08/04 14:04:56;;;;;;;0.10;0.10;;;;;;;;;;5062201;28;20049;-81
2022/08/04 14:07:24;;;;;;;0.20;0.20;;;;;;;;;;5062991;28;20048;-78
2022/08/04 14:09:50;;;;;;;0.20;0.20;;;;;;;;;;5069243;28;20067;-78
2022/08/04 14:12:17;;;;;;;0.20;0.20;;;;;;;;;;5061411;28;20498;-79
2022/08/04 14:14:53;;;;;;;0.20;0.20;;;;;;;;;;5071190;28;20084;-78